Beals, Maine
Current Conditions -  °F | °C
As of 7:15 AM on Friday 24 Oct 2014 (Local Time) from KBHB Reporting Station
Overcast Overcast  
Wind Chill: 44°   Ceiling: 1300
Heat Index: 48°   Visibility: 8mi
Dew Point: 48°   Wind: 9mph
Humidity: 100%   Direction: 360°N
Pressure: 29.62"   Gusts: 16mph
Location:  44.52°N, 67.62°W
Report Text: KBHB 241115Z AUTO 36008G14KT 8SM OVC013 09/09 A2962 RMK AO1 P0001
Loading
Personal Weather Stations






























Interactive Weather Map
Tropical Storm Tracking
New forecast layout! Learn more

10-Day Weather Forecast

Advertisements
Track Severe Weather on mobile